Time;durP1;ratioP1;P1;durP2;ratioP2;P2;SDS_P1;SDS_P2;PMS_P1;PMS_P2;Temp;Humidity;BMP_temperature;BMP_pressure;BME280_temperature;BME280_humidity;BME280_pressure;Samples;Min_cycle;Max_cycle;Signal;HPM_P1;HPM_P2
2023/12/10 00:01:06;;;;;;;9.43;3.35;;;;;;;7.92;89.67;99472.81;7390118;19;20086;-61
2023/12/10 00:03:35;;;;;;;9.45;3.50;;;;;;;7.91;89.66;99479.06;7393268;19;20102;-61
2023/12/10 00:06:03;;;;;;;11.07;3.38;;;;;;;7.90;89.92;99480.03;7391100;19;20018;-61
2023/12/10 00:08:40;;;;;;;8.98;3.53;;;;;;;7.97;90.21;99482.97;7391303;19;20014;-62
2023/12/10 00:11:08;;;;;;;13.25;3.72;;;;;;;8.04;89.96;99487.59;7389753;19;20029;-62
2023/12/10 00:13:37;;;;;;;10.70;3.42;;;;;;;8.11;89.82;99487.94;7392998;19;20018;-62
2023/12/10 00:16:05;;;;;;;11.55;3.53;;;;;;;8.23;89.61;99499.25;7392092;19;20352;-62
2023/12/10 00:18:34;;;;;;;11.57;3.90;;;;;;;8.22;89.94;99500.22;7393049;19;20199;-62
2023/12/10 00:21:02;;;;;;;11.35;3.33;;;;;;;8.29;89.43;99504.03;7391420;19;20022;-63
2023/12/10 00:23:30;;;;;;;10.88;3.70;;;;;;;8.31;89.44;99504.72;7393049;19;20022;-63
2023/12/10 00:25:58;;;;;;;14.05;3.97;;;;;;;8.38;89.49;99508.53;7391594;19;20119;-61
2023/12/10 00:28:26;;;;;;;13.50;3.40;;;;;;;8.38;89.62;99515.63;7391531;19;20044;-63
2023/12/10 00:30:54;;;;;;;15.32;3.95;;;;;;;8.41;89.43;99523.28;7390142;19;20026;-63
2023/12/10 00:33:21;;;;;;;14.07;3.35;;;;;;;8.44;89.41;99523.03;7390466;19;20022;-62
2023/12/10 00:35:49;;;;;;;15.65;3.75;;;;;;;8.48;89.26;99513.88;7391534;19;20035;-63
2023/12/10 00:38:18;;;;;;;20.30;3.83;;;;;;;8.56;88.95;99529.91;7390375;19;20078;-64
2023/12/10 00:40:51;;;;;;;19.50;4.00;;;;;;;8.64;88.75;99534.53;7390091;19;20039;-62
2023/12/10 00:43:19;;;;;;;19.42;3.88;;;;;;;8.67;89.04;99534.28;7392094;19;20022;-64
2023/12/10 00:45:47;;;;;;;18.17;3.60;;;;;;;8.69;88.92;99535.78;7391388;19;20007;-63
2023/12/10 00:48:16;;;;;;;17.30;4.05;;;;;;;8.71;88.95;99554.16;7391522;19;20018;-64
2023/12/10 00:50:44;;;;;;;16.75;3.75;;;;;;;8.67;88.88;99548.28;7387835;19;20022;-62
2023/12/10 00:53:12;;;;;;;12.35;3.08;;;;;;;8.75;88.75;99558.19;7391289;19;20031;-60
2023/12/10 00:55:40;;;;;;;19.65;4.32;;;;;;;8.75;88.78;99560.84;7389700;19;20021;-59
2023/12/10 00:58:09;;;;;;;16.73;3.88;;;;;;;8.75;88.91;99559.03;7391270;19;20022;-61
2023/12/10 01:00:37;;;;;;;23.08;4.20;;;;;;;8.80;88.51;99566.56;7389842;19;20022;-58
2023/12/10 01:03:05;;;;;;;17.95;4.13;;;;;;;8.77;88.81;99580.00;7390321;19;20044;-58
2023/12/10 01:05:32;;;;;;;22.65;3.88;;;;;;;8.78;88.83;99579.06;7389454;19;20052;-58
2023/12/10 01:08:00;;;;;;;23.98;4.03;;;;;;;8.77;89.07;99593.19;7391066;19;20010;-59
2023/12/10 01:10:29;;;;;;;19.45;3.72;;;;;;;8.79;88.87;99588.63;7389556;19;20022;-58
2023/12/10 01:12:57;;;;;;;22.15;4.10;;;;;;;8.85;88.66;99603.09;7391197;19;20403;-58
2023/12/10 01:15:31;;;;;;;18.70;3.90;;;;;;;8.86;88.21;99604.81;7391188;19;20010;-58
2023/12/10 01:18:00;;;;;;;19.90;4.75;;;;;;;8.83;88.12;99612.97;7387560;19;20519;-59
2023/12/10 01:20:32;;;;;;;22.73;4.50;;;;;;;8.84;88.01;99623.38;7396675;19;20018;-58
2023/12/10 01:23:03;;;;;;;25.70;4.85;;;;;;;8.87;87.98;99638.97;7398608;19;20022;-59
2023/12/10 01:25:31;;;;;;;17.92;3.67;;;;;;;8.90;87.71;99651.09;7396444;19;20512;-60
2023/12/10 01:27:59;;;;;;;21.52;3.80;;;;;;;8.90;87.59;99649.28;7396798;19;20043;-58
2023/12/10 01:30:27;;;;;;;20.10;3.92;;;;;;;8.92;87.63;99649.16;7394845;19;20022;-59
2023/12/10 01:32:59;;;;;;;21.27;4.18;;;;;;;8.94;87.47;99655.16;7396452;19;20090;-59
2023/12/10 01:35:27;;;;;;;22.70;3.70;;;;;;;8.92;87.26;99659.69;7396550;19;20014;-59
2023/12/10 01:37:56;;;;;;;27.55;4.32;;;;;;;8.85;87.38;99667.28;7395423;19;20382;-58
2023/12/10 01:40:24;;;;;;;19.95;3.72;;;;;;;8.90;87.13;99665.13;7395547;19;20490;-59
2023/12/10 01:42:53;;;;;;;19.95;4.25;;;;;;;8.91;86.74;99672.06;7396204;19;20011;-59
2023/12/10 01:45:21;;;;;;;16.85;3.10;;;;;;;8.92;86.58;99673.75;7396164;19;20018;-59
2023/12/10 01:47:51;;;;;;;20.55;3.80;;;;;;;8.91;86.63;99674.72;7397138;19;20021;-59
2023/12/10 01:50:21;;;;;;;20.58;3.35;;;;;;;8.96;86.16;99674.31;7395938;19;20522;-59
2023/12/10 01:52:49;;;;;;;22.80;3.42;;;;;;;8.86;86.03;99670.81;7397852;19;20184;-56
2023/12/10 01:55:18;;;;;;;19.33;4.40;;;;;;;8.91;86.13;99687.91;7397186;19;20019;-58
2023/12/10 01:57:46;;;;;;;22.88;3.92;;;;;;;8.95;85.88;99683.22;7393760;19;20085;-60
2023/12/10 02:00:14;;;;;;;17.17;3.53;;;;;;;9.00;85.66;99688.94;7395299;19;20364;-58
2023/12/10 02:02:44;;;;;;;17.85;3.63;;;;;;;8.94;85.54;99692.94;7397344;19;20043;-59
2023/12/10 02:05:12;;;;;;;22.70;3.92;;;;;;;8.94;85.16;99685.03;7395561;19;20043;-59
2023/12/10 02:07:44;;;;;;;25.10;4.10;;;;;;;8.93;85.11;99693.91;7396948;19;20026;-59
2023/12/10 02:10:12;;;;;;;24.90;4.05;;;;;;;8.95;84.97;99696.41;7395632;19;20019;-59
2023/12/10 02:12:41;;;;;;;19.05;4.03;;;;;;;8.94;84.89;99690.31;7396881;19;20381;-59
2023/12/10 02:15:19;;;;;;;18.90;3.97;;;;;;;8.96;84.55;99698.91;7396703;19;20361;-58
2023/12/10 02:17:49;;;;;;;20.50;3.38;;;;;;;8.93;84.61;99693.06;7392650;19;20505;-60
2023/12/10 02:20:20;;;;;;;21.50;4.13;;;;;;;8.90;84.75;99698.63;7393559;19;20018;-61
2023/12/10 02:23:06;;;;;;;22.38;4.22;;;;;;;8.98;84.19;99701.44;7395033;19;20018;-60
2023/12/10 02:25:35;;;;;;;23.85;3.78;;;;;;;8.84;84.50;99693.84;7394581;19;20061;-61
2023/12/10 02:28:05;;;;;;;20.92;3.45;;;;;;;8.87;84.69;99690.94;7396692;19;20015;-59
2023/12/10 02:30:34;;;;;;;20.60;4.18;;;;;;;8.89;84.44;99707.47;7394266;19;20047;-62
2023/12/10 02:33:02;;;;;;;22.40;5.60;;;;;;;8.85;84.40;99716.63;7396182;19;20056;-62
2023/12/10 02:35:30;;;;;;;25.85;4.55;;;;;;;8.89;84.33;99710.97;7395660;19;20415;-61
2023/12/10 02:37:58;;;;;;;23.90;4.30;;;;;;;8.91;83.97;99722.25;7393824;19;20026;-62
2023/12/10 02:40:26;;;;;;;24.08;4.05;;;;;;;8.82;84.12;99708.97;7392685;19;20022;-61
2023/12/10 02:42:54;;;;;;;24.65;3.95;;;;;;;8.82;84.19;99717.72;7395948;19;20014;-62
2023/12/10 02:45:22;;;;;;;24.63;4.22;;;;;;;8.85;84.09;99713.97;7394261;19;20017;-61
2023/12/10 02:47:50;;;;;;;23.05;3.85;;;;;;;8.83;83.40;99711.47;7396320;19;20015;-61
2023/12/10 02:50:18;;;;;;;24.90;4.10;;;;;;;8.86;83.30;99713.03;7394960;19;20014;-62
2023/12/10 02:52:45;;;;;;;18.05;3.58;;;;;;;8.86;82.99;99708.59;7396800;19;20011;-61
2023/12/10 02:55:13;;;;;;;23.23;4.15;;;;;;;8.86;82.73;99708.59;7394366;19;20357;-61
2023/12/10 02:57:41;;;;;;;19.23;3.70;;;;;;;8.90;82.73;99715.28;7392855;19;20035;-60
2023/12/10 03:00:10;;;;;;;17.98;3.92;;;;;;;8.90;82.26;99717.94;7394088;19;20517;-60
2023/12/10 03:02:39;;;;;;;18.45;3.92;;;;;;;8.94;82.05;99711.44;7395300;19;20081;-61
2023/12/10 03:05:07;;;;;;;20.80;4.45;;;;;;;8.94;82.18;99719.34;7395153;19;20010;-62
2023/12/10 03:07:38;;;;;;;19.77;4.35;;;;;;;8.98;82.33;99717.28;7395392;19;20019;-62
2023/12/10 03:10:06;;;;;;;22.60;4.30;;;;;;;8.91;82.04;99714.31;7393727;19;20022;-62
2023/12/10 03:12:34;;;;;;;17.20;3.90;;;;;;;8.94;82.40;99714.06;7393502;19;20027;-62
2023/12/10 03:15:02;;;;;;;25.63;4.25;;;;;;;8.93;82.53;99711.53;7394616;19;20243;-61
2023/12/10 03:17:30;;;;;;;21.40;3.92;;;;;;;8.89;82.39;99718.03;7392579;19;20018;-61
2023/12/10 03:19:58;;;;;;;19.00;3.63;;;;;;;8.83;82.13;99713.28;7393583;19;20026;-62
2023/12/10 03:22:25;;;;;;;18.67;3.75;;;;;;;8.86;82.58;99713.03;7394686;19;20018;-62
2023/12/10 03:24:54;;;;;;;19.08;3.47;;;;;;;8.85;82.59;99714.81;7393077;19;20062;-61
2023/12/10 03:27:24;;;;;;;22.17;4.25;;;;;;;8.76;82.59;99697.94;7394161;19;20022;-61
2023/12/10 03:29:52;;;;;;;17.45;3.13;;;;;;;8.87;82.66;99712.06;7391129;19;20018;-60
2023/12/10 03:32:20;;;;;;;20.05;3.50;;;;;;;8.77;83.14;99709.34;7392526;19;20015;-62
2023/12/10 03:34:48;;;;;;;19.15;4.40;;;;;;;8.77;83.45;99718.09;7392483;19;20039;-61
2023/12/10 03:37:16;;;;;;;19.77;3.47;;;;;;;8.72;83.37;99703.63;7393141;19;20055;-61
2023/12/10 03:39:44;;;;;;;17.15;3.05;;;;;;;8.66;83.31;99704.97;7393377;19;20110;-61
2023/12/10 03:42:12;;;;;;;19.10;3.53;;;;;;;8.75;82.75;99716.56;7390967;19;20078;-59
2023/12/10 03:44:40;;;;;;;17.40;3.42;;;;;;;8.63;83.29;99712.31;7392087;19;20018;-58
2023/12/10 03:47:08;;;;;;;17.02;3.45;;;;;;;8.63;83.39;99714.94;7393855;19;20478;-58
2023/12/10 03:49:36;;;;;;;19.88;3.47;;;;;;;8.68;83.35;99718.03;7393671;19;20026;-60
2023/12/10 03:52:04;;;;;;;20.38;4.00;;;;;;;8.64;83.60;99721.88;7392832;19;20010;-60
2023/12/10 03:54:32;;;;;;;19.45;3.95;;;;;;;8.57;84.01;99718.06;7393128;19;20370;-58
2023/12/10 03:57:00;;;;;;;17.58;3.90;;;;;;;8.55;84.32;99718.22;7393238;19;20032;-59
2023/12/10 03:59:28;;;;;;;19.58;4.20;;;;;;;8.59;83.96;99717.00;7391579;19;20495;-58
2023/12/10 04:01:56;;;;;;;19.80;3.90;;;;;;;8.59;84.42;99721.44;7391042;19;20021;-60
2023/12/10 04:04:25;;;;;;;18.80;3.10;;;;;;;8.60;84.13;99725.75;7393364;19;20015;-59
2023/12/10 04:06:53;;;;;;;18.60;3.88;;;;;;;8.57;84.49;99723.34;7393054;19;20051;-59
2023/12/10 04:09:20;;;;;;;20.83;3.67;;;;;;;8.58;84.23;99717.94;7392535;19;20509;-60
2023/12/10 04:11:48;;;;;;;18.45;3.42;;;;;;;8.59;83.96;99732.00;7389049;19;20082;-59
2023/12/10 04:14:16;;;;;;;16.45;3.60;;;;;;;8.53;84.39;99723.59;7390813;19;20530;-57
2023/12/10 04:16:44;;;;;;;21.60;4.05;;;;;;;8.61;84.02;99719.50;7392526;19;20047;-60
2023/12/10 04:19:12;;;;;;;15.02;3.35;;;;;;;8.64;84.01;99719.25;7392481;19;20027;-59
2023/12/10 04:21:40;;;;;;;17.35;3.35;;;;;;;8.57;84.15;99721.53;7388407;19;20040;-59
2023/12/10 04:24:08;;;;;;;17.10;2.95;;;;;;;8.64;83.98;99716.63;7392611;19;20495;-58
2023/12/10 04:26:36;;;;;;;15.07;3.53;;;;;;;8.59;83.95;99722.28;7390561;19;20035;-58
2023/12/10 04:29:04;;;;;;;15.65;2.97;;;;;;;8.58;84.27;99722.38;7392268;19;20382;-59
2023/12/10 04:31:32;;;;;;;16.15;3.00;;;;;;;8.56;84.39;99716.41;7388486;19;20049;-59
2023/12/10 04:34:01;;;;;;;14.27;2.92;;;;;;;8.54;84.27;99716.50;7392336;19;20389;-60
2023/12/10 04:36:29;;;;;;;15.73;2.95;;;;;;;8.58;84.03;99725.03;7391922;19;20014;-56
2023/12/10 04:38:58;;;;;;;18.58;3.22;;;;;;;8.54;84.55;99729.72;7388797;19;20518;-59
2023/12/10 04:41:26;;;;;;;17.67;2.75;;;;;;;8.56;84.45;99711.13;7390235;19;20040;-59
2023/12/10 04:43:53;;;;;;;12.18;2.60;;;;;;;8.51;84.28;99712.34;7391932;19;20022;-59
2023/12/10 04:46:21;;;;;;;12.85;2.50;;;;;;;8.57;84.19;99718.91;7390342;19;20018;-59
2023/12/10 04:48:49;;;;;;;15.80;3.03;;;;;;;8.54;84.43;99716.50;7391616;19;20067;-59
2023/12/10 04:51:17;;;;;;;16.30;2.72;;;;;;;8.57;84.11;99708.34;7388074;19;20025;-58
2023/12/10 04:53:45;;;;;;;16.00;3.20;;;;;;;8.53;83.94;99707.75;7394344;19;20033;-59
2023/12/10 04:56:13;;;;;;;14.88;2.83;;;;;;;8.59;84.01;99708.25;7399236;19;20023;-58
2023/12/10 04:58:43;;;;;;;15.27;2.75;;;;;;;8.57;84.06;99696.97;7396760;19;20043;-60
2023/12/10 05:01:11;;;;;;;17.50;2.83;;;;;;;8.56;83.88;99704.03;7396032;19;20035;-61
2023/12/10 05:03:39;;;;;;;14.57;2.97;;;;;;;8.51;84.11;99699.16;7397423;19;20026;-61
2023/12/10 05:06:08;;;;;;;15.23;2.88;;;;;;;8.56;83.96;99703.22;7399236;19;20131;-61
2023/12/10 05:08:36;;;;;;;15.43;2.80;;;;;;;8.59;83.72;99701.16;7397094;19;20027;-61
2023/12/10 05:11:04;;;;;;;16.45;3.13;;;;;;;8.50;84.34;99701.91;7394444;19;20022;-61
2023/12/10 05:13:32;;;;;;;17.00;3.05;;;;;;;8.52;84.32;99697.34;7397446;19;20022;-61
2023/12/10 05:16:00;;;;;;;13.75;2.60;;;;;;;8.51;84.39;99698.31;7397413;19;20030;-64
2023/12/10 05:18:28;;;;;;;16.10;3.00;;;;;;;8.45;84.73;99694.38;7397143;19;20029;-64
2023/12/10 05:20:56;;;;;;;11.27;2.60;;;;;;;8.56;84.13;99695.28;7396401;19;20047;-65
2023/12/10 05:23:24;;;;;;;14.98;2.83;;;;;;;8.48;84.80;99699.41;7398536;19;20098;-65
2023/12/10 05:25:51;;;;;;;12.52;2.42;;;;;;;8.50;84.26;99688.72;7398366;19;20491;-66
2023/12/10 05:28:19;;;;;;;12.57;2.67;;;;;;;8.50;84.41;99696.63;7398735;19;20006;-66
2023/12/10 05:30:47;;;;;;;13.48;2.42;;;;;;;8.41;84.70;99686.84;7396011;19;20096;-62
2023/12/10 05:33:15;;;;;;;11.93;2.40;;;;;;;8.43;84.84;99695.44;7398161;19;20019;-63
2023/12/10 05:35:44;;;;;;;10.98;2.72;;;;;;;8.48;84.27;99701.22;7399009;19;20027;-65
2023/12/10 05:38:12;;;;;;;14.60;2.40;;;;;;;8.54;84.00;99695.41;7396864;19;20018;-65
2023/12/10 05:40:39;;;;;;;8.48;1.80;;;;;;;8.50;84.01;99694.81;7396742;19;20026;-65
2023/12/10 05:43:07;;;;;;;13.50;2.72;;;;;;;8.40;84.78;99704.47;7397543;19;20018;-65
2023/12/10 05:45:35;;;;;;;10.23;2.20;;;;;;;8.40;85.05;99701.00;7397611;19;20345;-65
2023/12/10 05:48:03;;;;;;;13.35;2.47;;;;;;;8.39;85.14;99697.50;7397882;19;20025;-65
2023/12/10 05:50:31;;;;;;;10.02;1.90;;;;;;;8.36;85.50;99689.81;7395920;19;20384;-66
2023/12/10 05:53:00;;;;;;;9.35;1.80;;;;;;;8.30;85.82;99691.16;7398069;19;20082;-67
2023/12/10 05:55:29;;;;;;;10.70;1.92;;;;;;;8.35;85.53;99692.56;7397728;19;20027;-65
2023/12/10 05:57:57;;;;;;;10.23;2.72;;;;;;;8.38;85.42;99697.63;7396056;19;20086;-65
2023/12/10 06:00:25;;;;;;;13.27;2.25;;;;;;;8.34;85.51;99688.25;7394053;19;20094;-68
2023/12/10 06:02:54;;;;;;;11.35;2.25;;;;;;;8.29;85.88;99702.66;7397673;19;20014;-68
2023/12/10 06:05:22;;;;;;;9.07;2.28;;;;;;;8.30;86.21;99699.06;7396255;19;20022;-67
2023/12/10 06:07:50;;;;;;;12.90;2.50;;;;;;;8.28;86.23;99692.25;7397029;19;20018;-65
2023/12/10 06:10:17;;;;;;;12.85;2.42;;;;;;;8.30;86.24;99699.06;7395200;19;20015;-65
2023/12/10 06:12:45;;;;;;;12.13;1.90;;;;;;;8.30;86.54;99692.94;7393393;19;20046;-65
2023/12/10 06:15:13;;;;;;;9.75;1.73;;;;;;;8.23;86.52;99692.59;7396529;19;20014;-65
2023/12/10 06:17:41;;;;;;;13.02;2.00;;;;;;;8.15;86.93;99687.13;7396535;19;20047;-65
2023/12/10 06:20:10;;;;;;;7.63;2.10;;;;;;;8.22;86.71;99682.19;7395005;19;20026;-66
2023/12/10 06:22:38;;;;;;;12.40;2.33;;;;;;;8.21;87.11;99681.34;7396211;19;20510;-66
2023/12/10 06:25:06;;;;;;;10.77;1.98;;;;;;;8.20;87.05;99673.56;7396849;19;20026;-67
2023/12/10 06:27:35;;;;;;;12.05;2.10;;;;;;;8.28;86.71;99673.78;7396414;19;20014;-66
2023/12/10 06:30:03;;;;;;;13.77;2.05;;;;;;;8.24;86.99;99686.38;7397777;19;20046;-66
2023/12/10 06:32:31;;;;;;;13.27;2.47;;;;;;;8.27;86.81;99686.13;7395833;19;20021;-66
2023/12/10 06:35:00;;;;;;;11.02;2.38;;;;;;;8.36;86.84;99683.72;7396134;19;20021;-65
2023/12/10 06:37:30;;;;;;;5.13;1.45;;;;;;;8.29;86.88;99688.66;7396777;19;20018;-67
2023/12/10 06:39:58;;;;;;;12.20;2.25;;;;;;;8.39;86.54;99683.47;7395234;19;20010;-66
2023/12/10 06:42:27;;;;;;;10.45;2.00;;;;;;;8.30;87.06;99683.22;7395836;19;20022;-66
2023/12/10 06:44:56;;;;;;;9.73;1.70;;;;;;;8.28;87.19;99693.09;7395966;19;20440;-66
2023/12/10 06:47:27;;;;;;;10.48;1.98;;;;;;;8.31;86.92;99691.97;7396214;19;20047;-66
2023/12/10 06:49:55;;;;;;;11.07;2.50;;;;;;;8.30;87.15;99691.16;7392773;19;20022;-66
2023/12/10 06:52:23;;;;;;;8.68;1.92;;;;;;;8.26;87.18;99683.63;7395737;19;20078;-66
2023/12/10 06:54:51;;;;;;;11.80;2.30;;;;;;;8.27;87.39;99680.84;7395553;19;20014;-66
2023/12/10 06:57:19;;;;;;;9.80;1.77;;;;;;;8.36;87.22;99676.63;7395374;19;20370;-66
2023/12/10 06:59:46;;;;;;;9.77;2.00;;;;;;;8.35;86.77;99677.56;7393060;19;20137;-66
2023/12/10 07:02:14;;;;;;;12.60;2.05;;;;;;;8.39;86.96;99680.84;7395534;19;20026;-66
2023/12/10 07:04:43;;;;;;;11.60;1.92;;;;;;;8.33;87.21;99684.78;7395046;19;20019;-66
2023/12/10 07:07:11;;;;;;;10.95;2.08;;;;;;;8.36;87.14;99691.63;7394989;19;20691;-65
2023/12/10 07:09:38;;;;;;;10.88;2.30;;;;;;;8.45;86.79;99686.44;7395196;19;20043;-65
2023/12/10 07:12:06;;;;;;;8.43;1.60;;;;;;;8.47;86.81;99683.69;7394546;19;20422;-65
2023/12/10 07:14:34;;;;;;;8.77;2.20;;;;;;;8.41;86.76;99690.31;7394467;19;20024;-65
2023/12/10 07:17:02;;;;;;;12.98;2.25;;;;;;;8.31;87.36;99690.19;7392425;19;20130;-65
2023/12/10 07:19:30;;;;;;;8.85;1.85;;;;;;;8.33;87.43;99687.44;7393352;19;20108;-66
2023/12/10 07:21:58;;;;;;;8.52;1.70;;;;;;;8.35;87.44;99689.94;7394636;19;20435;-66
2023/12/10 07:24:26;;;;;;;12.55;2.03;;;;;;;8.35;87.30;99682.84;7394438;19;20027;-65
2023/12/10 07:26:54;;;;;;;10.32;2.00;;;;;;;8.34;87.56;99694.38;7394897;19;20015;-66
2023/12/10 07:29:22;;;;;;;8.00;1.85;;;;;;;8.36;87.55;99694.28;7394030;19;20022;-66
2023/12/10 07:31:50;;;;;;;12.45;1.98;;;;;;;8.35;87.64;99700.47;7391862;19;20022;-66
2023/12/10 07:34:18;;;;;;;11.07;1.95;;;;;;;8.35;87.84;99700.47;7394463;19;20383;-66
2023/12/10 07:36:46;;;;;;;8.00;1.90;;;;;;;8.37;88.14;99701.22;7392805;19;20011;-66
2023/12/10 07:39:14;;;;;;;9.07;1.83;;;;;;;8.36;88.40;99697.75;7392876;19;20018;-65
2023/12/10 07:41:42;;;;;;;9.30;1.90;;;;;;;8.35;88.58;99701.31;7391784;19;20021;-65
2023/12/10 07:44:10;;;;;;;7.63;1.65;;;;;;;8.42;88.61;99709.59;7394031;19;20010;-66
2023/12/10 07:46:38;;;;;;;9.50;1.92;;;;;;;8.43;88.45;99717.41;7393834;19;20024;-65
2023/12/10 07:49:06;;;;;;;10.23;2.03;;;;;;;8.45;88.42;99723.38;7393294;19;20022;-65
2023/12/10 07:51:34;;;;;;;8.23;2.03;;;;;;;8.47;88.45;99724.13;7389499;19;20026;-65
2023/12/10 07:54:01;;;;;;;9.38;1.80;;;;;;;8.45;88.83;99735.75;7393700;19;20594;-65
2023/12/10 07:56:31;;;;;;;9.50;1.73;;;;;;;8.49;88.73;99730.09;7392898;19;20022;-66
2023/12/10 07:58:59;;;;;;;8.93;1.63;;;;;;;8.56;88.25;99734.88;7392200;19;20475;-65
2023/12/10 08:01:27;;;;;;;5.15;1.20;;;;;;;8.57;88.56;99739.19;7390968;19;20026;-66
2023/12/10 08:03:54;;;;;;;8.88;1.45;;;;;;;8.52;88.76;99737.75;7393185;19;20022;-66
2023/12/10 08:06:25;;;;;;;5.13;1.20;;;;;;;8.58;88.72;99741.69;7391414;19;20010;-66
2023/12/10 08:08:53;;;;;;;5.50;1.15;;;;;;;8.52;89.11;99737.75;7392576;19;20011;-66
2023/12/10 08:11:21;;;;;;;6.03;1.27;;;;;;;8.56;89.28;99737.50;7391077;19;20030;-66
2023/12/10 08:13:51;;;;;;;6.95;1.65;;;;;;;8.57;89.51;99742.66;7391351;19;20028;-66
2023/12/10 08:16:19;;;;;;;5.43;1.30;;;;;;;8.63;89.64;99742.16;7392577;19;20018;-66
2023/12/10 08:18:47;;;;;;;4.28;1.00;;;;;;;8.58;89.77;99736.41;7390123;19;20396;-66
2023/12/10 08:21:15;;;;;;;4.95;1.00;;;;;;;8.59;89.91;99747.81;7390555;19;20015;-66
2023/12/10 08:23:43;;;;;;;4.18;1.10;;;;;;;8.64;89.57;99753.56;7392037;19;20019;-66
2023/12/10 08:26:11;;;;;;;4.10;1.23;;;;;;;8.70;89.83;99753.03;7392912;19;20090;-66
2023/12/10 08:28:39;;;;;;;2.50;0.90;;;;;;;8.67;89.38;99758.59;7392893;19;20030;-66
2023/12/10 08:31:07;;;;;;;2.95;0.93;;;;;;;8.73;89.64;99760.72;7390525;19;20043;-66
2023/12/10 08:33:35;;;;;;;2.25;0.80;;;;;;;8.70;89.55;99758.31;7392933;19;20014;-66
2023/12/10 08:36:03;;;;;;;3.00;1.00;;;;;;;8.80;89.43;99780.38;7391985;19;20048;-66
2023/12/10 08:38:31;;;;;;;4.95;1.10;;;;;;;8.78;89.66;99780.50;7392024;19;20026;-66
2023/12/10 08:40:59;;;;;;;5.03;0.90;;;;;;;8.76;89.73;99786.84;7390202;19;20010;-66
2023/12/10 08:43:27;;;;;;;6.53;1.10;;;;;;;8.83;89.82;99781.94;7392409;19;20010;-67
2023/12/10 08:45:55;;;;;;;3.72;0.90;;;;;;;8.84;89.86;99789.72;7391957;19;20014;-66
2023/12/10 08:48:23;;;;;;;4.20;1.05;;;;;;;8.84;89.63;99794.16;7393227;19;20034;-65
2023/12/10 08:50:51;;;;;;;7.20;1.08;;;;;;;8.89;89.36;99806.03;7390201;19;20018;-66
2023/12/10 08:53:19;;;;;;;4.47;1.08;;;;;;;8.94;89.37;99805.66;7392693;19;20045;-66
2023/12/10 08:55:48;;;;;;;7.00;1.17;;;;;;;8.98;89.05;99815.81;7393418;19;20089;-66
2023/12/10 08:58:16;;;;;;;6.00;1.33;;;;;;;8.99;88.97;99822.78;7394026;19;20022;-66
2023/12/10 09:00:44;;;;;;;6.63;1.10;;;;;;;9.01;88.78;99826.13;7389341;19;20026;-66
2023/12/10 09:03:12;;;;;;;5.50;1.10;;;;;;;9.08;88.13;99833.53;7391396;19;20434;-66
2023/12/10 09:05:40;;;;;;;6.85;1.67;;;;;;;9.07;87.94;99837.97;7391680;19;20027;-66
2023/12/10 09:08:08;;;;;;;5.35;1.13;;;;;;;9.08;87.82;99838.81;7391179;19;20023;-66
2023/12/10 09:10:36;;;;;;;4.93;1.45;;;;;;;9.15;87.14;99840.00;7389448;19;20022;-66
2023/12/10 09:13:03;;;;;;;6.47;1.60;;;;;;;9.23;86.97;99848.13;7391275;19;20030;-66
2023/12/10 09:15:31;;;;;;;8.27;1.30;;;;;;;9.24;86.38;99863.88;7391463;19;20030;-66
2023/12/10 09:17:59;;;;;;;7.60;1.30;;;;;;;9.24;86.46;99865.66;7391191;19;20422;-66
2023/12/10 09:20:28;;;;;;;5.35;1.05;;;;;;;9.23;86.51;99866.63;7388817;19;20018;-66
2023/12/10 09:22:56;;;;;;;5.40;1.10;;;;;;;9.28;86.30;99882.94;7391442;19;20031;-66
2023/12/10 09:25:24;;;;;;;8.43;1.35;;;;;;;9.27;86.01;99892.69;7390631;19;20521;-66
2023/12/10 09:27:52;;;;;;;7.28;1.15;;;;;;;9.30;85.63;99899.50;7390812;19;20019;-66
2023/12/10 09:30:20;;;;;;;5.38;1.45;;;;;;;9.39;85.48;99895.28;7388793;19;20018;-66
2023/12/10 09:32:48;;;;;;;3.90;1.00;;;;;;;9.38;84.64;99890.94;7390689;19;20059;-66
2023/12/10 09:35:16;;;;;;;6.85;1.33;;;;;;;9.49;84.11;99914.66;7390479;19;20381;-66
2023/12/10 09:37:43;;;;;;;5.80;1.10;;;;;;;9.48;83.93;99916.47;7390644;19;20043;-66
2023/12/10 09:40:11;;;;;;;5.70;0.98;;;;;;;9.56;83.55;99912.38;7392793;19;20019;-66
2023/12/10 09:42:39;;;;;;;5.93;0.80;;;;;;;9.52;83.12;99928.47;7397653;19;20042;-66
2023/12/10 09:45:07;;;;;;;7.90;1.42;;;;;;;9.51;83.44;99931.25;7398164;19;20022;-66
2023/12/10 09:47:35;;;;;;;8.40;1.67;;;;;;;9.51;83.13;99926.78;7397723;19;20014;-67
2023/12/10 09:50:04;;;;;;;8.52;1.70;;;;;;;9.55;83.04;99939.78;7396324;19;20018;-67
2023/12/10 09:52:32;;;;;;;5.90;1.23;;;;;;;9.53;83.42;99953.94;7397743;19;20019;-67
2023/12/10 09:55:00;;;;;;;5.85;1.13;;;;;;;9.50;83.13;99948.06;7398166;19;20078;-66
2023/12/10 09:57:30;;;;;;;5.55;1.10;;;;;;;9.53;83.51;99959.22;7396697;19;20046;-66
2023/12/10 09:59:59;;;;;;;7.20;1.20;;;;;;;9.58;83.31;99963.28;7393175;19;20745;-66
2023/12/10 10:02:35;;;;;;;6.25;1.13;;;;;;;9.61;83.13;99979.72;7396966;19;20026;-67
2023/12/10 10:05:06;;;;;;;6.40;1.13;;;;;;;9.59;83.31;99972.91;7397557;19;20026;-67
2023/12/10 10:07:35;;;;;;;4.55;1.10;;;;;;;9.60;83.54;99983.34;7396664;19;20021;-66
2023/12/10 10:10:05;;;;;;;7.40;1.40;;;;;;;9.67;83.18;99983.69;7395531;19;20022;-66
2023/12/10 10:12:33;;;;;;;8.48;1.30;;;;;;;9.75;82.95;99990.00;7397277;19;20015;-66
2023/12/10 10:15:03;;;;;;;6.97;1.67;;;;;;;9.77;83.10;99993.38;7396922;19;20026;-66
2023/12/10 10:17:33;;;;;;;5.15;0.98;;;;;;;9.86;82.53;99999.72;7396265;19;20022;-66
2023/12/10 10:20:04;;;;;;;5.85;1.40;;;;;;;9.86;82.55;100006.81;7394400;19;20023;-66
2023/12/10 10:22:32;;;;;;;6.55;1.30;;;;;;;9.87;82.44;100011.13;7397394;19;20361;-67
2023/12/10 10:25:00;;;;;;;6.93;1.23;;;;;;;9.80;82.57;100002.00;7396344;19;20373;-66
2023/12/10 10:27:31;;;;;;;7.10;1.23;;;;;;;9.85;82.58;100003.31;7396515;19;20031;-65
2023/12/10 10:29:59;;;;;;;4.28;1.05;;;;;;;9.88;82.57;100012.78;7395280;19;20094;-66
2023/12/10 10:32:28;;;;;;;6.93;1.30;;;;;;;9.97;82.02;100023.47;7396178;19;20049;-66
2023/12/10 10:34:58;;;;;;;6.72;1.25;;;;;;;10.10;81.84;100011.84;7396499;19;20055;-66
2023/12/10 10:37:27;;;;;;;6.75;1.00;;;;;;;10.08;81.78;100016.44;7395152;19;20010;-66
2023/12/10 10:39:56;;;;;;;6.47;1.33;;;;;;;10.03;81.63;100011.50;7394279;19;20014;-66
2023/12/10 10:42:24;;;;;;;7.85;1.40;;;;;;;10.05;81.97;100032.56;7396422;19;20022;-65
2023/12/10 10:44:52;;;;;;;5.07;1.02;;;;;;;10.02;81.96;100042.41;7396072;19;20018;-66
2023/12/10 10:47:21;;;;;;;6.00;1.10;;;;;;;10.01;81.96;100046.03;7396504;19;20028;-66
2023/12/10 10:49:55;;;;;;;6.72;1.15;;;;;;;9.91;82.39;100060.16;7394752;19;20101;-66
2023/12/10 10:52:44;;;;;;;;;;;;;;;9.60;83.75;100067.94;7394674;19;20050;-66
2023/12/10 10:55:13;;;;;;;5.53;1.02;;;;;;;9.56;84.60;100060.38;7396532;19;19914;-66
2023/12/10 10:57:41;;;;;;;6.93;1.60;;;;;;;9.52;85.08;100073.84;7396064;19;20018;-66
2023/12/10 11:00:18;;;;;;;10.18;2.10;;;;;;;9.51;85.70;100076.63;7393278;19;20018;-66
2023/12/10 11:02:48;;;;;;;7.50;2.25;;;;;;;9.35;86.77;100084.94;7395930;19;20151;-66
2023/12/10 11:05:32;;;;;;;8.63;1.50;;;;;;;9.53;86.83;100082.59;7393748;19;20374;-66
2023/12/10 11:08:00;;;;;;;;;;;;;;;9.36;87.85;100091.03;7395667;19;20014;-66
2023/12/10 11:10:29;;;;;;;4.25;0.82;;;;;;;9.37;88.33;100093.56;7393449;19;19937;-66
2023/12/10 11:12:59;;;;;;;3.97;0.82;;;;;;;9.37;88.11;100088.28;7393399;19;20491;-66
2023/12/10 11:15:29;;;;;;;3.28;0.95;;;;;;;9.45;88.47;100090.31;7394560;19;20038;-66
2023/12/10 11:18:01;;;;;;;2.78;0.70;;;;;;;9.48;88.25;100095.34;7394916;19;20018;-66
2023/12/10 11:20:31;;;;;;;3.10;0.60;;;;;;;9.40;88.97;100100.41;7392724;19;20018;-66
2023/12/10 11:23:04;;;;;;;2.90;0.80;;;;;;;9.44;88.87;100102.69;7394735;19;20046;-66
2023/12/10 11:25:32;;;;;;;3.22;0.57;;;;;;;9.38;88.52;100095.22;7394656;19;20019;-66
2023/12/10 11:28:12;;;;;;;2.60;0.70;;;;;;;9.47;88.63;100105.09;7394743;19;20043;-66
2023/12/10 11:30:41;;;;;;;2.35;0.70;;;;;;;9.50;88.45;100119.84;7393139;19;20433;-65
2023/12/10 11:33:11;;;;;;;3.55;0.70;;;;;;;9.42;88.50;100117.81;7393685;19;20014;-65
2023/12/10 11:35:40;;;;;;;3.72;0.90;;;;;;;9.50;88.33;100117.19;7393749;19;20043;-65
2023/12/10 11:38:09;;;;;;;1.58;0.50;;;;;;;9.42;88.49;100131.00;7394414;19;20672;-65
2023/12/10 11:40:37;;;;;;;5.20;0.82;;;;;;;9.41;88.73;100121.41;7391957;19;20022;-65
2023/12/10 11:43:07;;;;;;;3.92;0.93;;;;;;;9.40;88.54;100130.31;7394189;19;20089;-65